»·PEaware :: N441PW 4Z5-CFQ5

N441PW :: 4Z5-CFQ5

FLIGHT INFORMATION

Flight Status: Arrived
Operator: Privately registered:
United States
More flights under this callsign
Pilot: Stacy K. (11621)
Aircraft: CESSNA 404 TITAN
(C404)
More flights by this aircraft type
Origin: 4Z5 Horsfeld
United States
Destination: CFQ5 Silver City
Canada
More flights between these airports :: More routes between these airports
Route: DB
File this flight plan on PilotEdge
Remarks:
Altitude:
(Current/Filed)
9,500ft
Speed:
(Current/Filed)
190kts
Departed: 08-Jul-19 05:33 PM
Arrived: 08-Jul-19 06:07 PM
Distance/Time
Traveled:
99nm/0:34
Distance/Time
To Go:
Arrived

Flight Plot

Page will automatically refresh every two minutes.

Flight plan parsing failed; only flown route is shown


Map Options




Map Legend


Flown Route
Filed Route
Departure Airport
Arrival Airport
Navaid (VOR, NDB)
Fix

Horizontal Profiles

Position Reports

Time Latitude Longitude Heading Altitude Ground
Speed
08-Jul-19 17:28 62.007881 -141.177678 279 3619ft 0kts
08-Jul-19 17:29 62.007881 -141.177678 279 3619ft 0kts
08-Jul-19 17:30 62.007862 -141.178956 245 3619ft 12kts
08-Jul-19 17:31 62.006420 -141.183871 60 3619ft 0kts
08-Jul-19 17:32 62.006658 -141.156955 150 3953ft 107kts
08-Jul-19 17:33 61.980468 -141.107566 119 5169ft 134kts
08-Jul-19 17:34 61.959395 -141.027898 115 5942ft 167kts
08-Jul-19 17:35 61.935264 -140.933310 124 5911ft 196kts
08-Jul-19 17:36 61.891292 -140.861795 146 5893ft 199kts
08-Jul-19 17:37 61.843549 -140.802469 147 5897ft 198kts
08-Jul-19 17:38 61.794980 -140.741326 149 5963ft 198kts
08-Jul-19 17:39 61.750847 -140.681830 140 6632ft 183kts
08-Jul-19 17:40 61.710796 -140.616756 137 7315ft 180kts
08-Jul-19 17:41 61.676148 -140.535592 121 7490ft 194kts
08-Jul-19 17:42 61.648418 -140.441625 120 7981ft 182kts
08-Jul-19 17:43 61.622460 -140.352070 117 8663ft 177kts
08-Jul-19 17:44 61.598116 -140.262757 116 9336ft 176kts
08-Jul-19 17:45 61.575742 -140.166020 109 9483ft 192kts
08-Jul-19 17:46 61.562746 -140.056429 93 9480ft 194kts
08-Jul-19 17:47 61.561467 -139.943399 90 9478ft 194kts
08-Jul-19 17:48 61.559886 -139.830233 87 9499ft 193kts
08-Jul-19 17:49 61.561332 -139.715927 87 9204ft 203kts
08-Jul-19 17:50 61.551469 -139.597362 110 8555ft 210kts
08-Jul-19 17:51 61.526251 -139.486851 120 7899ft 211kts
08-Jul-19 17:52 61.491112 -139.388979 128 7501ft 204kts
08-Jul-19 17:53 61.453417 -139.302050 128 7374ft 205kts
08-Jul-19 17:54 61.416719 -139.206805 126 6717ft 212kts
08-Jul-19 17:55 61.381938 -139.107204 122 6054ft 211kts
08-Jul-19 17:56 61.345237 -139.012589 131 5517ft 207kts
08-Jul-19 17:57 61.307800 -138.925309 132 5497ft 199kts
08-Jul-19 17:58 61.268339 -138.844529 134 5496ft 198kts
08-Jul-19 17:59 61.227851 -138.766434 133 5499ft 198kts
08-Jul-19 18:00 61.193304 -138.678557 124 5500ft 194kts
08-Jul-19 18:01 61.162386 -138.589899 123 5292ft 193kts
08-Jul-19 18:02 61.124595 -138.507456 139 4614ft 200kts
08-Jul-19 18:03 61.084012 -138.439893 128 4467ft 165kts
08-Jul-19 18:04 61.058761 -138.379473 174 3883ft 113kts
08-Jul-19 18:05 61.028646 -138.407705 211 2575ft 85kts
08-Jul-19 18:06 61.026692 -138.409682 37 2574ft 0kts
08-Jul-19 18:07 61.026692 -138.409682 37 2574ft 0kts
08-Jul-19 18:08 61.026692 -138.409682 37 2574ft 0kts
08-Jul-19 18:09 61.026692 -138.409682 37 2574ft 0kts
08-Jul-19 18:10 61.026692 -138.409682 37 2574ft 0kts
08-Jul-19 18:11 61.026692 -138.409682 37 2574ft 0kts
08-Jul-19 18:12 61.026692 -138.409682 37 2574ft 0kts
08-Jul-19 18:13 61.026692 -138.409682 37 2574ft 0kts
08-Jul-19 18:14 61.026692 -138.409682 37 2574ft 0kts
08-Jul-19 18:16 61.026692 -138.409682 37 2574ft 0kts
08-Jul-19 18:17 61.026692 -138.409682 37 2574ft 0kts
08-Jul-19 18:18 61.026692 -138.409682 37 2574ft 0kts
08-Jul-19 18:19 61.026692 -138.409682 37 2574ft 0kts
08-Jul-19 18:20 61.026692 -138.409682 37 2574ft 0kts
08-Jul-19 18:21 61.026692 -138.409682 37 2574ft 0kts
08-Jul-19 18:22 61.026692 -138.409682 37 2574ft 0kts

Navigation Log

Ident Type
Flight plan parsing failed, navigation log unavailable